Time;durP1;ratioP1;P1;durP2;ratioP2;P2;SDS_P1;SDS_P2;PMS_P1;PMS_P2;Temp;Humidity;BMP_temperature;BMP_pressure;BME280_temperature;BME280_humidity;BME280_pressure;Samples;Min_cycle;Max_cycle;Signal;HPM_P1;HPM_P2
2022/06/04 00:00:39;;;;;;;6.07;5.43;;;25.00;99.90;;;;;;5097133;28;20460;-90
2022/06/04 00:03:06;;;;;;;6.63;5.13;;;25.00;99.90;;;;;;5097686;28;20822;-90
2022/06/04 00:05:35;;;;;;;6.30;5.70;;;25.00;99.90;;;;;;5115970;28;20407;-89
2022/06/04 00:08:02;;;;;;;7.90;5.50;;;24.90;99.90;;;;;;5097624;28;20466;-89
2022/06/04 00:16:04;;;;;;;5.77;5.00;;;24.80;99.90;;;;;;5116911;28;20474;-89
2022/06/04 00:18:30;;;;;;;5.67;4.83;;;24.70;99.90;;;;;;5116791;28;20471;-88
2022/06/04 00:20:56;;;;;;;6.90;5.30;;;24.70;99.90;;;;;;5117293;28;20407;-89
2022/06/04 00:23:23;;;;;;;6.53;4.97;;;24.70;99.90;;;;;;5098226;28;20206;-89
2022/06/04 00:25:52;;;;;;;6.33;5.27;;;24.70;99.90;;;;;;5098210;28;20482;-91
2022/06/04 00:28:19;;;;;;;4.70;4.30;;;24.70;99.90;;;;;;5116765;28;20451;-90
2022/06/04 00:30:46;;;;;;;5.67;4.80;;;24.70;99.90;;;;;;5099518;28;20439;-89
2022/06/04 00:33:13;;;;;;;6.60;6.00;;;24.70;99.90;;;;;;5116290;28;20450;-91
2022/06/04 00:35:39;;;;;;;5.47;4.87;;;24.70;99.90;;;;;;5079964;28;20420;-89
2022/06/04 00:38:06;;;;;;;5.97;5.20;;;24.70;99.90;;;;;;5096615;28;20849;-91
2022/06/04 00:40:49;;;;;;;5.80;5.30;;;24.60;99.90;;;;;;5096618;28;20404;-89
2022/06/04 00:43:16;;;;;;;4.77;4.37;;;24.60;99.90;;;;;;5096049;28;20444;-89
2022/06/04 00:46:19;;;;;;;5.23;4.73;;;24.60;99.90;;;;;;5078290;28;20415;-90
2022/06/04 00:48:45;;;;;;;6.70;4.63;;;24.70;99.90;;;;;;5079578;28;20430;-88
2022/06/04 00:51:11;;;;;;;5.40;4.90;;;24.70;99.90;;;;;;5099318;28;20400;-89
2022/06/04 00:53:37;;;;;;;5.73;5.13;;;24.70;99.90;;;;;;5104796;28;20182;-90
2022/06/04 00:56:12;;;;;;;6.57;5.50;;;24.60;99.90;;;;;;5098961;28;20465;-88
2022/06/04 00:59:20;;;;;;;6.53;5.60;;;24.60;99.90;;;;;;5077839;28;20455;-89
2022/06/04 01:02:33;;;;;;;7.40;6.30;;;24.60;99.90;;;;;;5076212;28;20448;-91
2022/06/04 01:05:05;;;;;;;6.47;5.87;;;24.50;99.90;;;;;;5005537;28;20447;-90
2022/06/04 01:07:47;;;;;;;6.33;5.70;;;24.40;99.90;;;;;;5076697;28;20466;-90
2022/06/04 01:10:55;;;;;;;6.80;5.53;;;24.40;99.90;;;;;;5076714;28;20414;-89
2022/06/04 01:13:58;;;;;;;6.37;5.77;;;24.30;99.90;;;;;;5075226;28;20479;-89
2022/06/04 01:16:45;;;;;;;8.63;4.70;;;24.30;99.90;;;;;;5076646;28;20421;-89
2022/06/04 01:19:29;;;;;;;6.30;5.70;;;24.20;99.90;;;;;;5076854;28;20534;-89
2022/06/04 01:22:45;;;;;;;5.73;5.13;;;24.20;99.90;;;;;;5094948;28;20488;-90
2022/06/04 01:25:20;;;;;;;6.77;6.03;;;24.20;99.90;;;;;;5099587;28;20455;-90
2022/06/04 01:27:58;;;;;;;7.30;6.20;;;24.20;99.90;;;;;;5082609;28;20445;-89
2022/06/04 01:30:29;;;;;;;5.67;5.17;;;24.10;99.90;;;;;;5100650;28;20396;-90
2022/06/04 01:33:19;;;;;;;5.67;5.10;;;24.10;99.90;;;;;;5082314;28;20503;-89
2022/06/04 01:35:55;;;;;;;5.57;5.10;;;24.00;99.90;;;;;;5063322;28;20424;-91
2022/06/04 01:38:27;;;;;;;6.70;5.63;;;24.00;99.90;;;;;;5063164;28;21017;-90
2022/06/04 01:41:19;;;;;;;8.87;6.30;;;24.00;99.90;;;;;;5080155;28;20418;-89
2022/06/04 01:43:54;;;;;;;6.23;5.63;;;24.10;99.90;;;;;;5067816;28;20420;-90
2022/06/04 01:46:30;;;;;;;7.00;6.30;;;24.10;99.90;;;;;;5063557;28;20790;-89
2022/06/04 01:49:21;;;;;;;5.47;4.97;;;24.10;99.90;;;;;;5081861;28;20514;-91
2022/06/04 01:51:50;;;;;;;7.87;6.57;;;24.00;99.90;;;;;;5064004;28;20464;-89
2022/06/04 01:54:25;;;;;;;7.07;6.07;;;24.00;99.90;;;;;;5085507;28;20796;-89
2022/06/04 01:57:16;;;;;;;6.30;5.40;;;24.00;99.90;;;;;;5061424;28;20491;-91
2022/06/04 01:59:51;;;;;;;7.87;6.93;;;23.90;99.90;;;;;;5071145;28;20426;-89
2022/06/04 02:02:24;;;;;;;5.40;4.87;;;23.90;99.90;;;;;;5059164;28;20485;-91
2022/06/04 02:04:54;;;;;;;6.20;5.40;;;23.90;99.90;;;;;;5059046;28;20936;-89
2022/06/04 02:07:34;;;;;;;7.47;5.87;;;23.90;99.90;;;;;;5058554;28;20452;-89
2022/06/04 02:10:11;;;;;;;6.97;5.90;;;23.90;99.90;;;;;;5058479;28;20447;-91
2022/06/04 02:12:39;;;;;;;7.87;6.40;;;23.90;99.90;;;;;;5059613;28;20976;-91
2022/06/04 02:15:08;;;;;;;8.33;6.33;;;24.00;99.90;;;;;;5058917;28;20489;-91
2022/06/04 02:17:37;;;;;;;6.10;5.47;;;24.00;99.90;;;;;;5059692;28;20846;-90
2022/06/04 02:20:03;;;;;;;8.27;5.57;;;24.00;99.90;;;;;;5077236;28;20407;-90
2022/06/04 02:22:31;;;;;;;7.40;6.37;;;24.00;99.90;;;;;;5077786;28;20967;-90
2022/06/04 02:25:00;;;;;;;6.47;5.87;;;24.00;99.90;;;;;;5060790;28;20419;-91
2022/06/04 02:27:26;;;;;;;7.30;6.07;;;24.00;99.90;;;;;;5061543;28;20454;-91
2022/06/04 02:29:52;;;;;;;6.53;5.47;;;24.00;99.90;;;;;;5078933;28;20395;-89
2022/06/04 02:32:46;;;;;;;5.97;5.37;;;24.00;99.90;;;;;;5078328;28;20951;-90
2022/06/04 02:35:56;;;;;;;8.33;7.43;;;24.10;99.90;;;;;;5079312;28;20171;-90
2022/06/04 02:38:29;;;;;;;8.83;5.67;;;24.10;99.90;;;;;;5039903;28;20487;-90
2022/06/04 02:44:27;;;;;;;7.63;5.57;;;24.10;99.90;;;;;;5076143;28;20406;-90
2022/06/04 02:47:10;;;;;;;6.67;5.90;;;24.10;99.90;;;;;;5057780;28;20434;-89
2022/06/04 02:49:46;;;;;;;7.60;6.57;;;24.10;99.90;;;;;;5058759;28;20408;-90
2022/06/04 02:52:15;;;;;;;6.83;6.20;;;24.10;99.90;;;;;;5059109;28;20436;-91
2022/06/04 02:55:07;;;;;;;9.73;6.33;;;24.10;99.90;;;;;;5059572;28;20419;-88
2022/06/04 02:57:36;;;;;;;6.33;5.50;;;24.10;99.90;;;;;;5078149;28;20571;-90
2022/06/04 03:00:05;;;;;;;6.73;5.77;;;24.00;99.90;;;;;;5060909;28;20488;-91
2022/06/04 03:02:33;;;;;;;6.23;5.40;;;24.00;99.90;;;;;;5060388;28;20486;-91
2022/06/04 03:05:10;;;;;;;7.27;5.60;;;24.00;99.90;;;;;;5078385;28;20418;-90
2022/06/04 03:07:40;;;;;;;6.10;5.50;;;24.00;99.90;;;;;;5079426;28;20431;-91
2022/06/04 03:10:14;;;;;;;6.43;5.83;;;24.00;99.90;;;;;;5080577;28;20438;-90
2022/06/04 03:12:40;;;;;;;6.70;6.10;;;24.00;99.90;;;;;;5084590;28;20452;-90
2022/06/04 03:15:06;;;;;;;5.53;4.90;;;24.00;99.90;;;;;;5057830;28;20476;-91
2022/06/04 03:17:32;;;;;;;6.07;5.20;;;24.00;99.90;;;;;;5057052;28;20223;-90
2022/06/04 03:19:58;;;;;;;5.23;4.73;;;24.00;99.90;;;;;;5075323;28;20505;-89
2022/06/04 03:22:24;;;;;;;6.33;5.73;;;24.00;99.90;;;;;;5076102;28;20198;-91
2022/06/04 03:24:50;;;;;;;7.70;6.67;;;24.00;99.90;;;;;;5058375;28;20411;-89
2022/06/04 03:27:15;;;;;;;6.40;5.57;;;23.90;99.90;;;;;;5057543;28;20315;-89
2022/06/04 03:29:41;;;;;;;7.30;6.60;;;23.90;99.90;;;;;;5058819;28;20423;-88
2022/06/04 03:32:07;;;;;;;6.60;5.60;;;23.80;99.90;;;;;;5076985;28;20269;-89
2022/06/04 03:34:32;;;;;;;6.77;6.10;;;23.80;99.90;;;;;;5102746;28;20176;-91
2022/06/04 03:36:58;;;;;;;7.23;5.83;;;23.70;99.90;;;;;;5100972;28;20219;-91
2022/06/04 03:39:24;;;;;;;10.37;6.47;;;23.70;99.90;;;;;;5105585;28;20200;-89
2022/06/04 03:41:49;;;;;;;10.43;6.93;;;23.60;99.90;;;;;;5091334;28;20200;-91
2022/06/04 03:44:15;;;;;;;7.47;6.43;;;23.50;99.90;;;;;;5076353;28;20201;-89
2022/06/04 03:46:41;;;;;;;10.17;7.53;;;23.50;99.90;;;;;;5094961;28;20278;-90
2022/06/04 03:49:06;;;;;;;7.70;6.90;;;23.40;99.90;;;;;;5096493;28;20183;-90
2022/06/04 03:51:32;;;;;;;8.07;6.33;;;23.40;99.90;;;;;;5096425;28;20251;-90
2022/06/04 03:53:58;;;;;;;8.37;5.67;;;23.40;99.90;;;;;;5095333;28;20183;-88
2022/06/04 03:56:24;;;;;;;6.67;6.07;;;23.40;99.90;;;;;;5095878;28;20176;-89
2022/06/04 03:58:50;;;;;;;8.17;6.90;;;23.40;99.90;;;;;;5077512;28;20545;-89
2022/06/04 04:01:18;;;;;;;7.07;5.53;;;23.30;99.90;;;;;;5096159;28;20442;-89
2022/06/04 04:03:44;;;;;;;9.40;6.77;;;23.30;99.90;;;;;;5080837;28;20417;-91
2022/06/04 04:06:15;;;;;;;7.50;6.07;;;23.30;99.90;;;;;;5100097;28;20444;-90
2022/06/04 04:08:41;;;;;;;7.80;7.00;;;23.30;99.90;;;;;;5100188;28;20180;-90
2022/06/04 04:11:16;;;;;;;9.77;6.53;;;23.30;99.90;;;;;;5082105;28;20424;-90
2022/06/04 04:13:42;;;;;;;9.37;6.73;;;23.30;99.90;;;;;;5077216;28;20509;-90
2022/06/04 04:16:09;;;;;;;8.10;6.43;;;23.30;99.90;;;;;;5089784;28;20758;-91
2022/06/04 04:18:35;;;;;;;7.10;6.40;;;23.20;99.90;;;;;;5054733;28;20839;-91
2022/06/04 04:21:06;;;;;;;9.03;7.20;;;23.20;99.90;;;;;;5069427;28;20425;-89
2022/06/04 04:23:33;;;;;;;7.67;6.77;;;23.20;99.90;;;;;;5039120;28;20212;-90
2022/06/04 04:25:59;;;;;;;8.30;7.30;;;23.20;99.90;;;;;;5052630;28;20754;-89
2022/06/04 04:28:24;;;;;;;8.50;7.57;;;23.20;99.90;;;;;;5051250;28;20515;-91
2022/06/04 04:30:50;;;;;;;13.40;7.30;;;23.20;99.90;;;;;;5057181;28;20406;-89
2022/06/04 04:33:16;;;;;;;11.47;7.80;;;23.10;99.90;;;;;;5058708;28;20233;-91
2022/06/04 04:35:42;;;;;;;9.13;8.20;;;23.10;99.90;;;;;;5061097;28;20209;-90
2022/06/04 04:38:08;;;;;;;12.10;8.07;;;23.00;99.90;;;;;;5078977;28;20570;-90
2022/06/04 04:40:35;;;;;;;10.60;8.53;;;23.00;99.90;;;;;;5060337;28;20486;-89
2022/06/04 04:43:00;;;;;;;9.67;8.50;;;23.00;99.90;;;;;;5082924;28;20202;-90
2022/06/04 04:45:27;;;;;;;9.13;8.23;;;23.00;99.90;;;;;;5068077;28;20442;-89
2022/06/04 04:47:53;;;;;;;13.20;9.73;;;22.90;99.90;;;;;;5053118;28;20240;-90
2022/06/04 04:50:26;;;;;;;10.30;8.13;;;22.90;99.90;;;;;;5074180;28;20409;-91
2022/06/04 04:52:54;;;;;;;10.83;7.93;;;22.90;99.90;;;;;;5073090;28;20449;-91
2022/06/04 04:55:19;;;;;;;10.13;9.03;;;23.00;99.90;;;;;;5055955;28;20475;-89
2022/06/04 04:57:45;;;;;;;10.33;9.17;;;23.00;99.90;;;;;;5073664;28;21069;-90
2022/06/04 05:00:15;;;;;;;10.40;9.30;;;23.00;99.90;;;;;;5058758;28;20529;-90
2022/06/04 05:02:42;;;;;;;13.03;9.47;;;23.10;99.90;;;;;;5080606;28;20229;-89
2022/06/04 05:05:08;;;;;;;12.97;9.50;;;23.10;99.90;;;;;;5062098;28;20410;-89
2022/06/04 05:07:34;;;;;;;11.30;9.13;;;23.10;99.90;;;;;;5083348;28;20430;-89
2022/06/04 05:10:00;;;;;;;12.60;9.53;;;23.20;99.90;;;;;;5059472;28;20422;-91
2022/06/04 05:12:26;;;;;;;11.47;10.20;;;23.20;99.90;;;;;;5057679;28;20471;-90
2022/06/04 05:14:52;;;;;;;11.87;10.40;;;23.20;99.90;;;;;;5075183;28;20228;-90
2022/06/04 05:17:18;;;;;;;16.17;11.00;;;23.30;99.90;;;;;;5079755;28;20235;-90
2022/06/04 05:19:44;;;;;;;9.93;8.90;;;23.30;99.90;;;;;;5078399;28;20413;-91
2022/06/04 05:22:09;;;;;;;12.47;10.50;;;23.40;99.90;;;;;;5078094;28;20991;-91
2022/06/04 05:24:36;;;;;;;12.57;10.30;;;23.40;99.90;;;;;;5079286;28;20521;-88
2022/06/04 05:27:03;;;;;;;12.90;10.40;;;23.40;99.90;;;;;;5079993;28;20193;-91
2022/06/04 05:29:31;;;;;;;13.50;11.00;;;23.50;99.90;;;;;;5080217;28;20433;-90
2022/06/04 05:31:57;;;;;;;15.57;11.37;;;23.50;99.90;;;;;;5078992;28;20440;-90
2022/06/04 05:34:24;;;;;;;12.70;11.03;;;23.50;99.90;;;;;;5109478;28;20420;-90
2022/06/04 05:36:53;;;;;;;13.17;11.27;;;23.60;99.90;;;;;;5120329;28;20456;-91
2022/06/04 05:39:19;;;;;;;22.30;13.13;;;23.60;99.90;;;;;;5122928;28;20409;-89
2022/06/04 05:41:45;;;;;;;13.00;11.33;;;23.60;99.90;;;;;;5109665;28;20441;-90
2022/06/04 05:44:11;;;;;;;15.50;11.30;;;23.60;99.90;;;;;;5103910;28;20537;-90
2022/06/04 05:46:38;;;;;;;16.20;12.60;;;23.70;99.90;;;;;;5099326;28;20200;-91
2022/06/04 05:49:04;;;;;;;12.83;10.90;;;23.70;99.90;;;;;;5116446;28;20416;-91
2022/06/04 05:51:30;;;;;;;16.20;12.33;;;23.70;99.90;;;;;;5117637;28;20404;-90
2022/06/04 05:53:57;;;;;;;13.17;11.50;;;23.80;99.90;;;;;;5098179;28;20176;-91
2022/06/04 05:56:26;;;;;;;16.17;12.40;;;23.80;99.90;;;;;;5098954;28;20413;-91
2022/06/04 05:58:55;;;;;;;13.93;12.43;;;23.80;99.90;;;;;;5099799;28;20428;-90
2022/06/04 06:01:23;;;;;;;17.80;13.40;;;23.80;99.90;;;;;;5099052;28;20474;-91
2022/06/04 06:03:49;;;;;;;13.20;11.67;;;23.80;99.90;;;;;;5100815;28;20414;-89
2022/06/04 06:06:20;;;;;;;13.60;10.37;;;23.80;99.90;;;;;;5101577;28;20466;-91
2022/06/04 06:08:47;;;;;;;15.73;12.30;;;23.90;99.90;;;;;;5103582;28;20428;-89
2022/06/04 06:11:15;;;;;;;15.90;12.07;;;23.90;99.90;;;;;;5126161;28;20398;-89
2022/06/04 06:13:43;;;;;;;13.47;11.60;;;24.00;99.90;;;;;;5114443;28;20457;-89
2022/06/04 06:16:12;;;;;;;12.03;10.77;;;24.00;99.90;;;;;;5115022;28;20457;-89
2022/06/04 06:18:38;;;;;;;11.60;9.97;;;24.00;99.90;;;;;;5115734;28;20474;-90
2022/06/04 06:21:09;;;;;;;14.40;12.90;;;24.00;99.90;;;;;;5097888;28;20413;-89
2022/06/04 06:23:36;;;;;;;14.40;11.67;;;24.10;99.90;;;;;;5097757;28;20454;-90
2022/06/04 06:26:11;;;;;;;15.07;13.43;;;24.10;99.90;;;;;;5117940;28;20398;-89
2022/06/04 06:28:38;;;;;;;15.33;11.83;;;24.20;99.90;;;;;;5099883;28;20485;-89
2022/06/04 06:31:05;;;;;;;13.90;12.00;;;24.20;99.90;;;;;;5118615;28;20419;-89
2022/06/04 06:33:30;;;;;;;15.70;11.73;;;24.30;99.90;;;;;;5101599;28;20502;-89
2022/06/04 06:35:58;;;;;;;16.47;11.83;;;24.30;99.90;;;;;;5101256;28;20414;-89
2022/06/04 06:38:24;;;;;;;14.40;10.67;;;24.40;99.90;;;;;;5102415;28;20603;-91
2022/06/04 06:40:49;;;;;;;14.50;11.30;;;24.40;99.90;;;;;;5101331;28;20415;-90
2022/06/04 06:43:15;;;;;;;12.27;10.77;;;24.40;99.90;;;;;;5105368;28;20199;-89
2022/06/04 06:45:41;;;;;;;13.87;10.20;;;24.50;99.90;;;;;;5129665;28;20759;-91
2022/06/04 06:48:08;;;;;;;12.83;10.27;;;24.60;99.90;;;;;;5124396;28;20194;-90
2022/06/04 06:50:34;;;;;;;13.97;11.70;;;24.60;99.90;;;;;;5098509;28;20463;-90
2022/06/04 06:53:00;;;;;;;13.03;10.60;;;24.70;99.90;;;;;;5098399;28;20447;-90
2022/06/04 06:55:26;;;;;;;13.43;10.97;;;24.70;99.90;;;;;;5098500;28;20422;-90
2022/06/04 06:57:52;;;;;;;11.27;10.00;;;24.70;99.90;;;;;;5097822;28;20223;-90
2022/06/04 07:00:18;;;;;;;14.80;9.87;;;24.80;99.90;;;;;;5116887;28;20939;-91
2022/06/04 07:02:43;;;;;;;12.30;11.00;;;24.90;99.90;;;;;;5099780;28;20728;-91
2022/06/04 07:05:09;;;;;;;10.30;9.23;;;24.90;99.90;;;;;;5129219;28;20451;-91
2022/06/04 07:07:35;;;;;;;12.47;9.50;;;25.00;99.90;;;;;;5098800;28;20206;-89
2022/06/04 07:10:00;;;;;;;12.90;9.77;;;25.10;99.90;;;;;;5098601;28;20271;-91
2022/06/04 07:12:26;;;;;;;12.70;10.53;;;25.10;99.90;;;;;;5116658;28;20200;-90
2022/06/04 07:14:52;;;;;;;11.13;10.00;;;25.20;99.90;;;;;;5099257;28;20227;-90
2022/06/04 07:17:18;;;;;;;15.90;10.93;;;25.20;99.90;;;;;;5097945;28;20707;-90
2022/06/04 07:19:44;;;;;;;12.27;9.17;;;25.20;99.90;;;;;;5098776;28;20207;-90
2022/06/04 07:22:10;;;;;;;11.60;8.97;;;25.30;99.90;;;;;;5116414;28;20428;-90
2022/06/04 07:24:37;;;;;;;10.70;9.60;;;25.40;99.90;;;;;;5097997;28;20210;-90
2022/06/04 07:27:03;;;;;;;10.70;9.43;;;25.50;99.90;;;;;;5098569;28;20466;-89
2022/06/04 07:29:29;;;;;;;9.80;8.77;;;25.50;99.90;;;;;;5098642;28;20423;-91
2022/06/04 07:31:55;;;;;;;11.57;9.73;;;25.60;99.90;;;;;;5116994;28;20426;-89
2022/06/04 07:34:21;;;;;;;10.80;9.37;;;25.60;99.90;;;;;;5084673;28;20272;-91
2022/06/04 07:36:47;;;;;;;11.57;9.80;;;25.70;99.90;;;;;;5009665;28;20204;-90
2022/06/04 07:39:15;;;;;;;11.40;10.17;;;25.80;99.90;;;;;;5060481;28;20420;-89
2022/06/04 07:41:43;;;;;;;12.13;10.37;;;25.80;99.90;;;;;;5061153;28;20721;-90
2022/06/04 07:44:11;;;;;;;13.00;9.60;;;25.80;99.90;;;;;;5061551;28;20421;-89
2022/06/04 07:46:38;;;;;;;12.30;9.57;;;25.80;99.90;;;;;;5062261;28;20441;-89
2022/06/04 07:49:05;;;;;;;19.00;10.00;;;25.90;99.90;;;;;;4995230;28;20467;-91
2022/06/04 07:51:35;;;;;;;10.90;9.80;;;25.90;99.90;;;;;;4995043;28;20815;-90
2022/06/04 07:54:03;;;;;;;12.20;10.47;;;25.80;99.90;;;;;;4994978;28;20436;-90
2022/06/04 07:56:29;;;;;;;10.93;9.57;;;25.80;99.90;;;;;;5062055;28;20421;-90
2022/06/04 07:58:55;;;;;;;10.10;9.10;;;25.80;99.90;;;;;;5064195;28;20418;-91
2022/06/04 08:01:22;;;;;;;12.60;11.33;;;25.80;99.90;;;;;;4995183;28;20413;-90
2022/06/04 08:03:49;;;;;;;11.13;9.80;;;25.80;99.90;;;;;;5064797;28;20207;-91
2022/06/04 08:06:17;;;;;;;12.33;10.23;;;25.80;99.90;;;;;;4996645;28;20418;-90
2022/06/04 08:08:44;;;;;;;13.07;11.77;;;25.70;99.90;;;;;;5006239;28;20413;-89
2022/06/04 08:13:54;;;;;;;10.53;9.30;;;25.80;99.90;;;;;;5034964;28;20490;-89
2022/06/04 08:16:20;;;;;;;14.80;11.93;;;25.80;99.90;;;;;;5076595;28;20954;-89
2022/06/04 08:18:46;;;;;;;12.03;10.73;;;25.80;99.90;;;;;;5076746;28;20216;-89
2022/06/04 08:21:13;;;;;;;11.20;10.00;;;25.80;99.90;;;;;;5077127;28;20481;-91
2022/06/04 08:23:39;;;;;;;13.43;11.47;;;25.80;99.90;;;;;;5095631;28;20441;-90
2022/06/04 08:26:07;;;;;;;10.93;9.83;;;25.80;99.90;;;;;;5078999;28;20428;-90
2022/06/04 08:28:34;;;;;;;12.17;10.93;;;25.80;99.90;;;;;;5078524;28;20444;-89
2022/06/04 08:31:02;;;;;;;11.87;10.77;;;25.80;99.90;;;;;;5078896;28;20433;-89
2022/06/04 08:33:31;;;;;;;12.57;10.83;;;25.80;99.90;;;;;;5077248;28;20438;-89
2022/06/04 08:35:57;;;;;;;11.93;10.70;;;25.80;99.90;;;;;;5079973;28;20429;-90
2022/06/04 08:38:23;;;;;;;11.67;10.57;;;25.80;99.90;;;;;;5098348;28;20513;-89
2022/06/04 08:40:53;;;;;;;11.83;10.67;;;25.80;99.90;;;;;;5079841;28;20637;-91
2022/06/04 08:43:43;;;;;;;10.23;9.23;;;25.80;99.90;;;;;;5079317;28;20470;-89
2022/06/04 08:46:16;;;;;;;10.07;9.07;;;25.80;99.90;;;;;;5080575;28;20435;-90
2022/06/04 08:48:43;;;;;;;12.53;10.60;;;25.90;99.90;;;;;;5083459;28;20980;-91
2022/06/04 08:51:23;;;;;;;10.73;9.57;;;25.90;99.90;;;;;;5086236;28;20429;-91
2022/06/04 08:53:52;;;;;;;13.13;9.33;;;26.00;99.90;;;;;;5094107;28;20408;-89
2022/06/04 08:59:19;;;;;;;10.23;9.20;;;26.10;99.90;;;;;;5094448;28;20462;-89
2022/06/04 09:01:54;;;;;;;10.10;9.20;;;26.10;99.90;;;;;;5094972;28;20432;-89
2022/06/04 09:04:37;;;;;;;10.40;9.33;;;26.20;99.90;;;;;;5074925;28;20431;-89
2022/06/04 09:07:29;;;;;;;13.10;9.23;;;26.20;99.90;;;;;;5074379;28;20576;-90
2022/06/04 09:10:03;;;;;;;11.60;9.63;;;26.30;99.90;;;;;;5074869;28;20504;-91
2022/06/04 09:12:40;;;;;;;11.17;9.03;;;26.30;99.90;;;;;;5093235;28;20439;-91
2022/06/04 09:15:34;;;;;;;9.33;8.43;;;26.40;99.90;;;;;;5093215;28;20475;-89
2022/06/04 09:18:15;;;;;;;8.83;7.93;;;26.50;99.90;;;;;;5037707;28;20469;-89
2022/06/04 09:20:44;;;;;;;8.47;7.60;;;26.60;99.90;;;;;;5076180;28;20428;-91
2022/06/04 09:23:50;;;;;;;9.77;8.83;;;26.60;99.90;;;;;;5076163;28;20436;-89
2022/06/04 09:26:40;;;;;;;9.90;8.90;;;26.70;99.90;;;;;;5034312;28;20433;-91
2022/06/04 09:29:28;;;;;;;10.63;9.57;;;26.80;99.90;;;;;;5094373;28;20405;-90
2022/06/04 09:32:05;;;;;;;9.67;8.70;;;26.90;99.90;;;;;;5094682;28;20433;-90
2022/06/04 09:34:35;;;;;;;9.40;8.50;;;26.90;99.90;;;;;;5089253;28;20975;-89
2022/06/04 09:37:03;;;;;;;12.10;9.50;;;27.00;99.90;;;;;;5096913;28;20476;-90
2022/06/04 09:39:32;;;;;;;9.40;8.60;;;27.00;99.90;;;;;;5115564;28;20423;-91
2022/06/04 09:42:03;;;;;;;12.13;9.97;;;27.10;99.90;;;;;;5097873;28;20428;-91
2022/06/04 09:44:31;;;;;;;10.43;9.43;;;27.20;99.90;;;;;;5098323;28;20481;-90
2022/06/04 09:47:05;;;;;;;9.70;8.80;;;27.20;99.90;;;;;;5102643;28;20427;-89
2022/06/04 09:49:36;;;;;;;10.10;9.20;;;27.20;99.90;;;;;;5103909;28;20460;-89
2022/06/04 09:52:22;;;;;;;9.53;8.53;;;27.30;99.90;;;;;;5103238;28;20487;-91
2022/06/04 09:55:00;;;;;;;8.63;7.83;;;27.30;99.90;;;;;;5105174;28;20924;-89
2022/06/04 09:57:38;;;;;;;12.80;8.00;;;27.30;99.90;;;;;;5105722;28;20483;-89
2022/06/04 10:00:22;;;;;;;9.50;8.17;;;27.40;99.90;;;;;;5115334;28;20940;-89
2022/06/04 10:02:56;;;;;;;11.63;10.43;;;27.50;99.90;;;;;;5126055;28;20800;-89
2022/06/04 10:05:24;;;;;;;10.23;9.23;;;27.50;99.90;;;;;;5118151;28;20980;-89
2022/06/04 10:07:51;;;;;;;9.53;8.53;;;27.50;99.90;;;;;;5099257;28;20433;-89
2022/06/04 10:10:22;;;;;;;9.80;8.83;;;27.60;99.90;;;;;;5099230;28;20505;-90
2022/06/04 10:15:37;;;;;;;11.23;9.80;;;27.60;99.90;;;;;;5118119;28;20419;-89
2022/06/04 10:18:20;;;;;;;10.33;9.13;;;27.60;99.90;;;;;;5099769;28;20464;-91
2022/06/04 10:21:12;;;;;;;10.30;9.10;;;27.70;99.90;;;;;;5100335;28;20439;-91
2022/06/04 10:23:45;;;;;;;9.90;8.40;;;27.70;99.90;;;;;;5100084;28;20408;-91
2022/06/04 10:26:42;;;;;;;9.87;8.80;;;27.80;99.90;;;;;;5100533;28;20459;-89
2022/06/04 10:29:37;;;;;;;9.37;8.37;;;27.80;99.90;;;;;;5119201;28;20396;-91
2022/06/04 10:32:25;;;;;;;8.03;7.23;;;27.90;99.90;;;;;;5101759;28;20432;-91
2022/06/04 10:35:16;;;;;;;7.83;7.13;;;27.90;99.90;;;;;;5105355;28;20464;-90
2022/06/04 10:37:51;;;;;;;8.40;7.50;;;27.90;99.90;;;;;;5099689;28;20456;-90
2022/06/04 10:40:30;;;;;;;8.30;7.40;;;28.00;99.90;;;;;;5081253;28;20523;-92
2022/06/04 10:43:02;;;;;;;7.43;6.73;;;28.10;99.90;;;;;;5098693;28;20427;-89
2022/06/04 10:45:37;;;;;;;7.70;7.00;;;28.00;99.90;;;;;;5082451;28;20751;-89
2022/06/04 10:48:21;;;;;;;8.00;6.90;;;28.10;99.90;;;;;;5081883;28;20522;-91
2022/06/04 10:53:52;;;;;;;6.70;6.10;;;28.00;99.90;;;;;;5101668;28;20489;-89
2022/06/04 10:56:27;;;;;;;8.07;5.43;;;28.10;99.90;;;;;;5081661;28;20427;-91
2022/06/04 10:59:04;;;;;;;6.60;6.00;;;28.10;99.90;;;;;;5095696;28;20460;-91
2022/06/04 11:01:32;;;;;;;6.30;5.70;;;28.20;99.90;;;;;;5096243;28;20398;-90
2022/06/04 11:04:31;;;;;;;7.17;5.87;;;28.20;99.90;;;;;;5079052;28;20848;-91
2022/06/04 11:07:31;;;;;;;5.90;5.40;;;28.20;99.90;;;;;;5078700;28;20437;-91
2022/06/04 11:09:59;;;;;;;4.70;4.30;;;28.30;99.90;;;;;;5034662;28;20436;-89
2022/06/04 11:12:41;;;;;;;5.50;4.87;;;28.30;99.90;;;;;;5078526;28;20440;-91
2022/06/04 11:15:48;;;;;;;4.83;4.30;;;28.40;99.90;;;;;;5073952;28;20474;-91
2022/06/04 11:18:22;;;;;;;5.03;4.63;;;28.40;99.90;;;;;;5069672;28;20472;-90
2022/06/04 11:20:55;;;;;;;6.40;5.70;;;28.40;99.90;;;;;;5080060;28;20456;-91
2022/06/04 11:23:29;;;;;;;6.70;5.47;;;28.40;99.90;;;;;;5098331;28;20449;-91
2022/06/04 11:26:23;;;;;;;5.40;4.53;;;28.50;99.90;;;;;;5079482;28;20440;-89
2022/06/04 11:28:49;;;;;;;7.43;5.43;;;28.50;99.90;;;;;;5046331;28;20446;-90
2022/06/04 11:31:28;;;;;;;6.17;5.57;;;28.60;99.90;;;;;;5077447;28;20922;-91
2022/06/04 11:34:21;;;;;;;6.53;5.93;;;28.50;99.90;;;;;;5103761;28;20249;-91
2022/06/04 11:37:16;;;;;;;6.60;6.00;;;28.60;99.90;;;;;;5100922;28;20447;-90
2022/06/04 11:40:00;;;;;;;6.33;5.80;;;28.50;99.90;;;;;;5047332;28;20464;-91
2022/06/04 11:42:33;;;;;;;6.53;5.30;;;28.50;99.90;;;;;;5102198;28;20436;-91
2022/06/04 11:45:35;;;;;;;7.47;5.50;;;28.50;99.90;;;;;;5127802;28;20435;-89
2022/06/04 11:48:25;;;;;;;6.93;6.27;;;28.50;99.90;;;;;;5098196;28;20452;-90
2022/06/04 11:51:37;;;;;;;7.27;6.53;;;28.50;99.90;;;;;;5092968;28;20443;-88
2022/06/04 11:54:09;;;;;;;6.93;6.00;;;28.60;99.90;;;;;;5089517;28;20792;-90
2022/06/04 11:56:52;;;;;;;6.10;5.40;;;28.60;99.90;;;;;;5056116;28;20480;-90
2022/06/04 11:59:41;;;;;;;6.43;5.93;;;28.60;99.90;;;;;;5056917;28;20437;-91
2022/06/04 12:02:10;;;;;;;5.47;4.93;;;28.60;99.90;;;;;;5055353;28;20496;-91
2022/06/04 12:05:10;;;;;;;5.83;5.33;;;28.70;99.90;;;;;;5091104;28;20430;-92
2022/06/04 12:07:42;;;;;;;8.10;5.83;;;28.70;99.90;;;;;;5046467;28;20456;-91
2022/06/04 12:10:20;;;;;;;5.20;4.70;;;28.70;99.90;;;;;;5057000;28;20434;-91
2022/06/04 12:12:57;;;;;;;5.50;4.80;;;28.70;99.90;;;;;;5090875;28;20443;-89
2022/06/04 12:16:04;;;;;;;7.30;4.30;;;28.70;99.90;;;;;;5073537;28;20440;-90
2022/06/04 12:18:35;;;;;;;4.53;4.13;;;28.80;99.90;;;;;;5042790;28;20924;-91
2022/06/04 12:26:41;;;;;;;5.07;4.57;;;28.90;99.90;;;;;;5072853;28;20497;-91
2022/06/04 12:29:29;;;;;;;9.40;5.10;;;28.90;99.90;;;;;;5055735;28;20404;-91
2022/06/04 12:32:25;;;;;;;4.73;4.40;;;28.90;99.90;;;;;;5090274;28;20475;-89
2022/06/04 12:35:06;;;;;;;7.13;4.90;;;28.90;99.90;;;;;;5073716;28;20439;-89
2022/06/04 12:37:38;;;;;;;5.17;4.67;;;29.00;99.90;;;;;;5079392;28;20465;-91
2022/06/04 12:40:19;;;;;;;6.53;3.80;;;29.00;99.90;;;;;;5078840;28;20503;-91
2022/06/04 12:43:23;;;;;;;4.53;4.00;;;29.00;99.90;;;;;;5095658;28;20435;-91
2022/06/04 12:46:06;;;;;;;5.20;3.60;;;29.00;99.90;;;;;;5063829;28;20436;-89
2022/06/04 12:48:42;;;;;;;5.87;3.70;;;29.10;99.90;;;;;;5095739;28;20479;-91
2022/06/04 12:51:13;;;;;;;4.17;3.73;;;29.10;99.90;;;;;;5095805;28;20464;-91
2022/06/04 12:54:16;;;;;;;5.20;4.30;;;29.10;99.90;;;;;;5078264;28;20923;-89
2022/06/04 12:56:42;;;;;;;6.87;4.03;;;29.10;99.90;;;;;;5077211;28;20449;-90
2022/06/04 12:59:42;;;;;;;3.90;3.50;;;29.10;99.90;;;;;;5077616;28;20436;-90
2022/06/04 13:02:28;;;;;;;4.47;3.70;;;29.10;99.90;;;;;;5097890;28;20460;-90
2022/06/04 13:05:20;;;;;;;5.20;4.70;;;29.20;99.90;;;;;;5080785;28;20442;-91
2022/06/04 13:07:54;;;;;;;4.40;3.97;;;29.20;99.90;;;;;;5076488;28;20446;-91
2022/06/04 13:10:38;;;;;;;5.20;3.93;;;29.20;99.90;;;;;;5093905;28;20439;-90
2022/06/04 13:13:50;;;;;;;4.93;4.03;;;29.20;99.90;;;;;;5030047;28;1278515;-91
2022/06/04 13:16:20;;;;;;;4.20;3.80;;;29.20;99.90;;;;;;5030197;28;20446;-89
2022/06/04 13:18:59;;;;;;;4.47;4.07;;;29.20;99.90;;;;;;5094075;28;20532;-90
2022/06/04 13:21:25;;;;;;;3.90;3.60;;;29.20;99.90;;;;;;5079201;28;20759;-91
2022/06/04 13:23:59;;;;;;;11.13;8.37;;;29.20;99.90;;;;;;5080496;28;20446;-90
2022/06/04 13:26:46;;;;;;;6.33;4.70;;;29.20;99.90;;;;;;5080335;28;20561;-90
2022/06/04 13:29:29;;;;;;;4.00;3.70;;;29.20;99.90;;;;;;5080000;28;20423;-91
2022/06/04 13:31:58;;;;;;;3.77;3.47;;;29.30;99.90;;;;;;5080034;28;20488;-89
2022/06/04 13:34:26;;;;;;;4.60;4.17;;;29.30;99.90;;;;;;5091708;28;20430;-90
2022/06/04 13:37:00;;;;;;;3.80;3.40;;;29.30;99.90;;;;;;5093315;28;20870;-90
2022/06/04 13:39:27;;;;;;;5.13;3.37;;;29.30;99.90;;;;;;5094801;28;20425;-91